createdAt,value
2022-10-07T00:00:55.506Z,98932.88
2022-10-07T00:03:25.751Z,98927.94
2022-10-07T00:06:07.730Z,98931.97
2022-10-07T00:08:40.430Z,98922.41
2022-10-07T00:11:18.242Z,98922.41
2022-10-07T00:13:48.086Z,98927.50
2022-10-07T00:16:19.039Z,98921.50
2022-10-07T00:18:45.978Z,98922.59
2022-10-07T00:21:16.678Z,98927.31
2022-10-07T00:23:45.602Z,98929.34
2022-10-07T00:26:18.361Z,98918.38
2022-10-07T00:28:46.334Z,98921.16
2022-10-07T00:31:17.473Z,98916.06
2022-10-07T00:33:45.169Z,98917.66
2022-10-07T00:36:16.413Z,98911.63
2022-10-07T00:38:43.529Z,98907.53
2022-10-07T00:41:19.337Z,98905.84
2022-10-07T00:43:46.720Z,98899.69
2022-10-07T00:46:32.847Z,98897.16
2022-10-07T00:49:13.622Z,98902.41
2022-10-07T00:51:43.578Z,98894.94
2022-10-07T00:54:15.799Z,98896.63
2022-10-07T00:56:46.863Z,98898.31
2022-10-07T00:59:16.279Z,98888.78
2022-10-07T01:01:43.142Z,98892.28
2022-10-07T01:04:13.425Z,98885.47
2022-10-07T01:06:41.501Z,98886.31
2022-10-07T01:09:11.490Z,98885.69
2022-10-07T01:12:10.450Z,98879.16
2022-10-07T01:15:06.979Z,98866.47
2022-10-07T01:17:50.530Z,98869.91
2022-10-07T01:20:46.714Z,98867.25
2022-10-07T01:23:44.195Z,98862.91
2022-10-07T01:26:51.146Z,98861.31
2022-10-07T01:29:36.692Z,98863.34
2022-10-07T01:32:10.773Z,98860.88
2022-10-07T01:34:42.884Z,98858.50
2022-10-07T01:37:17.372Z,98850.75
2022-10-07T01:39:55.458Z,98849.69
2022-10-07T01:42:26.101Z,98846.28
2022-10-07T01:44:57.448Z,98845.44
2022-10-07T01:47:26.996Z,98842.69
2022-10-07T01:49:53.720Z,98843.63
2022-10-07T01:53:15.237Z,98825.50
2022-10-07T01:56:16.266Z,98826.31
2022-10-07T01:58:54.716Z,98820.97
2022-10-07T02:01:43.626Z,98816.72
2022-10-07T02:04:41.009Z,98803.97
2022-10-07T02:07:52.901Z,98800.69
2022-10-07T02:10:28.718Z,98805.88
2022-10-07T02:13:28.627Z,98801.63
2022-10-07T02:16:17.253Z,98811.13
2022-10-07T02:18:51.168Z,98802.53
2022-10-07T02:21:26.733Z,98807.78
2022-10-07T02:23:56.438Z,98806.09
2022-10-07T02:26:26.578Z,98807.19
2022-10-07T02:28:56.913Z,98810.09
2022-10-07T02:31:30.407Z,98803.34
2022-10-07T02:34:00.426Z,98801.69
2022-10-07T02:36:39.384Z,98793.38
2022-10-07T02:39:07.980Z,98802.22
2022-10-07T02:41:58.763Z,98804.19
2022-10-07T02:44:46.888Z,98797.66
2022-10-07T02:48:01.542Z,98797.91
2022-10-07T02:50:37.651Z,98805.78
2022-10-07T02:53:06.223Z,98805.78
2022-10-07T02:55:34.906Z,98793.63
2022-10-07T02:58:07.479Z,98790.16
2022-10-07T03:00:40.453Z,98792.88
2022-10-07T03:03:07.249Z,98788.63
2022-10-07T03:05:35.188Z,98787.00
2022-10-07T03:08:09.400Z,98786.94
2022-10-07T03:10:37.560Z,98783.59
2022-10-07T03:13:04.872Z,98784.63
2022-10-07T03:15:33.066Z,98786.28
2022-10-07T03:17:59.832Z,98778.53
2022-10-07T03:20:26.711Z,98773.38
2022-10-07T03:22:53.441Z,98768.28
2022-10-07T03:25:20.133Z,98769.31
2022-10-07T03:27:48.514Z,98770.22
2022-10-07T03:30:15.288Z,98768.50
2022-10-07T03:32:42.079Z,98760.59
2022-10-07T03:35:08.973Z,98764.84
2022-10-07T03:37:36.322Z,98764.78
2022-10-07T03:40:03.807Z,98763.19
2022-10-07T03:42:30.614Z,98759.00
2022-10-07T03:44:57.326Z,98753.97
2022-10-07T03:47:24.251Z,98758.63
2022-10-07T03:49:50.941Z,98756.94
2022-10-07T03:52:18.664Z,98756.81
2022-10-07T03:54:45.416Z,98752.47
2022-10-07T03:57:30.881Z,98755.81
2022-10-07T03:59:58.713Z,98752.41
2022-10-07T04:02:25.486Z,98764.63
2022-10-07T04:04:55.204Z,98753.53
2022-10-07T04:07:22.551Z,98750.28
2022-10-07T04:09:49.357Z,98744.94
2022-10-07T04:12:16.239Z,98750.94
2022-10-07T04:14:42.940Z,98738.09
2022-10-07T04:17:09.741Z,98737.38
2022-10-07T04:19:36.531Z,98736.59
2022-10-07T04:22:08.496Z,98739.47
2022-10-07T04:24:36.212Z,98731.88
2022-10-07T04:27:04.923Z,98719.91
2022-10-07T04:29:36.584Z,98719.88
2022-10-07T04:32:05.697Z,98724.13
2022-10-07T04:34:32.571Z,98731.06
2022-10-07T04:37:00.948Z,98719.91
2022-10-07T04:39:43.045Z,98708.75
2022-10-07T04:42:33.834Z,98713.00
2022-10-07T04:45:00.571Z,98702.63
2022-10-07T04:47:27.333Z,98711.06
2022-10-07T04:49:55.023Z,98708.34
2022-10-07T04:52:21.783Z,98707.44
2022-10-07T04:54:48.528Z,98706.53
2022-10-07T04:57:15.321Z,98701.28
2022-10-07T04:59:43.159Z,98699.63
2022-10-07T05:02:10.391Z,98705.00
2022-10-07T05:04:37.533Z,98699.22
2022-10-07T05:07:04.830Z,98697.50
2022-10-07T05:09:31.556Z,98690.47
2022-10-07T05:11:58.285Z,98694.59
2022-10-07T05:14:25.029Z,98703.94
2022-10-07T05:16:52.218Z,98699.81
2022-10-07T05:19:20.062Z,98701.66
2022-10-07T05:21:46.847Z,98690.13
2022-10-07T05:24:13.594Z,98696.63
2022-10-07T05:26:40.815Z,98694.47
2022-10-07T05:29:07.594Z,98682.94
2022-10-07T05:31:34.372Z,98688.75
2022-10-07T05:34:02.816Z,98683.44
2022-10-07T05:36:29.647Z,98677.34
2022-10-07T05:38:59.675Z,98679.78
2022-10-07T05:41:28.913Z,98673.44
2022-10-07T05:43:55.780Z,98679.91
2022-10-07T05:46:23.705Z,98672.09
2022-10-07T05:48:53.654Z,98670.88
2022-10-07T05:51:22.632Z,98665.38
2022-10-07T05:53:53.181Z,98667.72
2022-10-07T05:56:21.523Z,98671.81
2022-10-07T05:58:52.697Z,98675.81
2022-10-07T06:01:23.642Z,98660.88
2022-10-07T06:03:54.099Z,98658.03
2022-10-07T06:06:21.475Z,98654.13
2022-10-07T06:08:49.120Z,98664.03
2022-10-07T06:11:39.000Z,98660.06
2022-10-07T06:14:06.274Z,98669.13
2022-10-07T06:16:33.371Z,98657.78
2022-10-07T06:19:00.166Z,98649.69
2022-10-07T06:21:28.495Z,98651.16
2022-10-07T06:23:58.308Z,98643.38
2022-10-07T06:26:25.291Z,98657.09
2022-10-07T06:28:51.972Z,98650.16
2022-10-07T06:31:25.524Z,98659.34
2022-10-07T06:33:52.943Z,98650.59
2022-10-07T06:36:19.775Z,98657.22
2022-10-07T06:38:52.665Z,98662.06
2022-10-07T06:41:21.100Z,98663.44
2022-10-07T06:43:48.382Z,98664.63
2022-10-07T06:46:19.956Z,98664.03
2022-10-07T06:48:47.689Z,98651.56
2022-10-07T06:51:17.731Z,98655.25
2022-10-07T06:53:45.369Z,98658.53
2022-10-07T06:56:14.261Z,98655.63
2022-10-07T06:58:43.231Z,98658.56
2022-10-07T07:01:11.201Z,98664.06
2022-10-07T07:03:38.344Z,98659.28
2022-10-07T07:06:08.271Z,98671.81
2022-10-07T07:08:35.254Z,98658.53
2022-10-07T07:11:28.939Z,98664.38
2022-10-07T07:13:55.967Z,98659.09
2022-10-07T07:16:24.294Z,98663.97
2022-10-07T07:18:53.624Z,98648.88
2022-10-07T07:21:22.002Z,98659.50
2022-10-07T07:23:50.910Z,98652.13
2022-10-07T07:26:18.626Z,98662.00
2022-10-07T07:28:52.471Z,98660.78
2022-10-07T07:31:19.463Z,98657.69
2022-10-07T07:33:52.193Z,98667.03
2022-10-07T07:36:23.413Z,98657.59
2022-10-07T07:38:53.088Z,98649.34
2022-10-07T07:41:24.646Z,98662.22
2022-10-07T07:43:54.347Z,98669.84
2022-10-07T07:46:24.092Z,98660.13
2022-10-07T07:48:52.157Z,98645.19
2022-10-07T07:51:19.875Z,98644.00
2022-10-07T07:53:49.695Z,98649.56
2022-10-07T07:56:18.419Z,98655.16
2022-10-07T07:58:45.743Z,98649.69
2022-10-07T08:01:17.686Z,98644.13
2022-10-07T08:03:47.755Z,98644.63
2022-10-07T08:06:18.879Z,98657.25
2022-10-07T08:08:45.708Z,98648.34
2022-10-07T08:11:18.810Z,98647.13
2022-10-07T08:13:47.500Z,98636.16
2022-10-07T08:16:20.894Z,98632.19
2022-10-07T08:18:50.542Z,98633.47
2022-10-07T08:21:22.113Z,98634.97
2022-10-07T08:23:54.246Z,98632.91
2022-10-07T08:26:21.230Z,98637.72
2022-10-07T08:28:48.964Z,98642.34
2022-10-07T08:31:19.304Z,98632.59
2022-10-07T08:33:49.382Z,98644.38
2022-10-07T08:36:21.477Z,98625.03
2022-10-07T08:38:50.000Z,98640.38
2022-10-07T08:41:34.064Z,98640.16
2022-10-07T08:44:18.883Z,98635.38
2022-10-07T08:46:53.433Z,98638.34
2022-10-07T08:49:32.119Z,98629.22
2022-10-07T08:52:25.142Z,98626.00
2022-10-07T08:54:52.437Z,98633.34
2022-10-07T08:57:42.169Z,98628.66
2022-10-07T09:00:17.431Z,98625.66
2022-10-07T09:03:25.138Z,98615.66
2022-10-07T09:05:55.584Z,98610.91
2022-10-07T09:08:47.210Z,98613.09
2022-10-07T09:11:25.537Z,98611.88
2022-10-07T09:14:03.267Z,98609.78
2022-10-07T09:16:41.699Z,98597.38
2022-10-07T09:19:20.161Z,98603.97
2022-10-07T09:21:51.002Z,98608.53
2022-10-07T09:24:28.164Z,98604.59
2022-10-07T09:26:59.115Z,98597.09
2022-10-07T09:29:29.324Z,98594.78
2022-10-07T09:31:57.986Z,98595.94
2022-10-07T09:34:29.013Z,98587.78
2022-10-07T09:37:16.358Z,98590.09
2022-10-07T09:39:45.627Z,98587.03
2022-10-07T09:42:39.725Z,98586.72
2022-10-07T09:45:26.572Z,98585.13
2022-10-07T09:48:00.769Z,98588.03
2022-10-07T09:50:39.502Z,98578.81
2022-10-07T09:53:19.622Z,98575.47
2022-10-07T09:55:47.415Z,98571.47
2022-10-07T09:58:24.310Z,98572.47
2022-10-07T10:01:00.851Z,98575.28
2022-10-07T10:03:35.142Z,98565.13
2022-10-07T10:06:06.626Z,98566.31
2022-10-07T10:08:44.578Z,98563.75
2022-10-07T10:11:20.010Z,98560.47
2022-10-07T10:13:50.314Z,98556.38
2022-10-07T10:16:34.206Z,98559.22
2022-10-07T10:19:04.906Z,98552.59
2022-10-07T10:21:40.647Z,98548.44
2022-10-07T10:24:15.692Z,98547.75
2022-10-07T10:27:05.386Z,98556.56
2022-10-07T10:29:55.919Z,98552.63
2022-10-07T10:33:08.026Z,98558.97
2022-10-07T10:36:01.956Z,98550.41
2022-10-07T10:38:46.850Z,98550.63
2022-10-07T10:41:46.547Z,98545.69
2022-10-07T10:45:02.528Z,98532.13
2022-10-07T10:48:06.196Z,98530.44
2022-10-07T10:51:16.030Z,98519.84
2022-10-07T10:54:04.535Z,98522.44
2022-10-07T10:56:47.991Z,98510.28
2022-10-07T10:59:50.860Z,98504.19
2022-10-07T11:02:39.287Z,98508.66
2022-10-07T11:05:25.294Z,98506.00
2022-10-07T11:08:38.104Z,98504.44
2022-10-07T11:11:21.497Z,98503.78
2022-10-07T11:14:07.193Z,98502.34
2022-10-07T11:17:01.194Z,98493.50
2022-10-07T11:19:51.876Z,98483.94
2022-10-07T11:22:34.355Z,98483.88
2022-10-07T11:25:19.877Z,98476.84
2022-10-07T11:27:51.410Z,98472.25
2022-10-07T11:30:22.886Z,98466.25
2022-10-07T11:33:15.102Z,98460.56
2022-10-07T11:35:57.337Z,98473.78
2022-10-07T11:38:33.976Z,98461.81
2022-10-07T11:41:12.153Z,98460.88
2022-10-07T11:43:46.390Z,98456.84
2022-10-07T11:46:25.998Z,98446.19
2022-10-07T11:49:11.356Z,98442.88
2022-10-07T11:51:47.111Z,98439.06
2022-10-07T11:54:19.877Z,98433.16
2022-10-07T11:56:52.942Z,98431.44
2022-10-07T11:59:40.031Z,98413.63
2022-10-07T12:02:29.384Z,98419.63
2022-10-07T12:05:01.966Z,98410.13
2022-10-07T12:07:59.900Z,98402.84
2022-10-07T12:10:33.763Z,98399.44
2022-10-07T12:13:10.733Z,98392.31
2022-10-07T12:15:43.096Z,98381.41
2022-10-07T12:18:10.429Z,98382.97
2022-10-07T12:20:51.295Z,98372.16
2022-10-07T12:23:21.892Z,98370.66
2022-10-07T12:25:53.761Z,98370.16
2022-10-07T12:28:34.486Z,98353.44
2022-10-07T12:31:05.665Z,98347.34
2022-10-07T12:33:44.386Z,98352.28
2022-10-07T12:36:26.055Z,98350.28
2022-10-07T12:39:01.496Z,98344.84
2022-10-07T12:41:37.628Z,98342.03
2022-10-07T12:44:21.243Z,98336.78
2022-10-07T12:46:58.235Z,98328.19
2022-10-07T12:49:34.087Z,98322.22
2022-10-07T12:52:06.890Z,98322.69
2022-10-07T12:54:55.418Z,98319.50
2022-10-07T12:57:29.591Z,98316.22
2022-10-07T13:00:07.863Z,98311.47
2022-10-07T13:03:21.964Z,98312.38
2022-10-07T13:06:40.772Z,98307.19
2022-10-07T13:09:55.743Z,98299.81
2022-10-07T13:12:39.865Z,98294.72
2022-10-07T13:15:42.734Z,98293.97
2022-10-07T13:18:21.808Z,98285.19
2022-10-07T13:21:02.229Z,98280.28
2022-10-07T13:23:32.014Z,98270.66
2022-10-07T13:26:03.064Z,98268.72
2022-10-07T13:28:53.260Z,98260.16
2022-10-07T13:31:21.922Z,98264.53
2022-10-07T13:33:51.202Z,98251.97
2022-10-07T13:36:25.035Z,98253.03
2022-10-07T13:39:21.490Z,98249.03
2022-10-07T13:41:58.030Z,98241.16
2022-10-07T13:44:30.970Z,98249.16
2022-10-07T13:47:07.045Z,98237.59
2022-10-07T13:49:43.530Z,98252.25
2022-10-07T13:52:36.046Z,98238.06
2022-10-07T13:55:18.182Z,98220.03
2022-10-07T13:57:45.449Z,98222.44
2022-10-07T14:00:13.689Z,98218.78
2022-10-07T14:02:41.983Z,98206.75
2022-10-07T14:05:30.742Z,98206.88
2022-10-07T14:08:14.981Z,98201.34
2022-10-07T14:11:01.117Z,98193.28
2022-10-07T14:13:28.802Z,98187.91
2022-10-07T14:15:58.300Z,98189.69
2022-10-07T14:18:27.621Z,98185.97
2022-10-07T14:21:16.918Z,98180.38
2022-10-07T14:23:46.887Z,98177.38
2022-10-07T14:26:17.869Z,98163.81
2022-10-07T14:28:45.121Z,98166.88
2022-10-07T14:31:39.598Z,98160.47
2022-10-07T14:34:38.409Z,98156.41
2022-10-07T14:37:29.582Z,98152.41
2022-10-07T14:39:58.355Z,98140.09
2022-10-07T14:42:32.816Z,98148.59
2022-10-07T14:45:04.783Z,98141.94
2022-10-07T14:47:31.543Z,98140.09
2022-10-07T14:50:01.085Z,98136.00
2022-10-07T14:52:32.048Z,98131.94
2022-10-07T14:55:04.126Z,98123.81
2022-10-07T14:57:31.205Z,98113.03
2022-10-07T14:59:57.908Z,98118.19
2022-10-07T15:02:24.617Z,98105.59
2022-10-07T15:04:51.413Z,98109.06
2022-10-07T15:07:18.214Z,98104.94
2022-10-07T15:09:46.575Z,98103.78
2022-10-07T15:12:16.291Z,98110.38
2022-10-07T15:14:43.281Z,98098.84
2022-10-07T15:17:11.942Z,98093.31
2022-10-07T15:19:39.025Z,98087.94
2022-10-07T15:22:05.944Z,98093.88
2022-10-07T15:24:34.090Z,98092.28
2022-10-07T15:27:01.283Z,98094.00
2022-10-07T15:29:28.041Z,98094.38
2022-10-07T15:31:54.841Z,98082.50
2022-10-07T15:34:21.582Z,98090.44
2022-10-07T15:36:48.598Z,98087.25
2022-10-07T15:39:15.379Z,98084.53
2022-10-07T15:41:43.979Z,98081.06
2022-10-07T15:44:21.334Z,98078.47
2022-10-07T15:46:53.539Z,98071.25
2022-10-07T15:49:20.623Z,98069.59
2022-10-07T15:51:47.974Z,98070.81
2022-10-07T15:54:15.113Z,98075.09
2022-10-07T15:56:45.605Z,98073.25
2022-10-07T15:59:12.372Z,98068.28
2022-10-07T16:01:39.097Z,98068.06
2022-10-07T16:04:10.477Z,98069.44
2022-10-07T16:06:37.320Z,98075.00
2022-10-07T16:09:05.127Z,98064.69
2022-10-07T16:11:33.791Z,98072.19
2022-10-07T16:14:02.033Z,98064.06
2022-10-07T16:16:32.266Z,98062.31
2022-10-07T16:19:00.382Z,98071.72
2022-10-07T16:21:30.157Z,98074.09
2022-10-07T16:24:05.524Z,98066.06
2022-10-07T16:26:35.609Z,98063.31
2022-10-07T16:29:24.701Z,98055.13
2022-10-07T16:31:58.313Z,98062.03
2022-10-07T16:34:26.943Z,98070.25
2022-10-07T16:36:54.508Z,98068.97
2022-10-07T16:39:21.985Z,98070.97
2022-10-07T16:41:51.895Z,98066.75
2022-10-07T16:44:19.639Z,98060.03
2022-10-07T16:46:46.793Z,98066.28
2022-10-07T16:49:17.511Z,98060.41
2022-10-07T16:51:45.852Z,98061.56
2022-10-07T16:54:17.474Z,98060.03
2022-10-07T16:56:49.253Z,98055.00
2022-10-07T16:59:22.689Z,98058.47
2022-10-07T17:01:53.014Z,98060.97
2022-10-07T17:04:20.382Z,98059.91
2022-10-07T17:06:47.567Z,98060.59
2022-10-07T17:09:14.874Z,98069.19
2022-10-07T17:11:42.059Z,98075.94
2022-10-07T17:14:18.206Z,98069.84
2022-10-07T17:16:47.719Z,98069.75
2022-10-07T17:19:21.937Z,98073.03
2022-10-07T17:21:51.509Z,98072.91
2022-10-07T17:24:21.274Z,98076.09
2022-10-07T17:26:49.113Z,98074.13
2022-10-07T17:29:20.515Z,98079.91
2022-10-07T17:31:50.222Z,98077.94
2022-10-07T17:34:19.993Z,98078.38
2022-10-07T17:36:47.960Z,98079.03
2022-10-07T17:39:15.822Z,98074.34
2022-10-07T17:41:42.766Z,98076.66
2022-10-07T17:44:12.390Z,98073.91
2022-10-07T17:46:40.698Z,98072.63
2022-10-07T17:49:13.170Z,98081.72
2022-10-07T17:51:42.339Z,98086.41
2022-10-07T17:54:12.448Z,98075.50
2022-10-07T17:56:39.654Z,98077.56
2022-10-07T17:59:06.573Z,98074.50
2022-10-07T18:01:35.437Z,98076.81
2022-10-07T18:04:06.760Z,98073.91
2022-10-07T18:06:36.936Z,98074.28
2022-10-07T18:09:13.877Z,98075.53
2022-10-07T18:11:59.269Z,98084.59
2022-10-07T18:14:44.636Z,98076.16
2022-10-07T18:17:11.663Z,98081.78
2022-10-07T18:19:39.689Z,98077.09
2022-10-07T18:22:09.922Z,98085.28
2022-10-07T18:24:36.635Z,98090.34
2022-10-07T18:27:03.428Z,98084.66
2022-10-07T18:29:33.927Z,98088.50
2022-10-07T18:32:01.165Z,98074.13
2022-10-07T18:34:28.175Z,98079.91
2022-10-07T18:36:57.048Z,98077.81
2022-10-07T18:39:27.475Z,98075.56
2022-10-07T18:41:54.586Z,98074.28
2022-10-07T18:44:22.093Z,98069.56
2022-10-07T18:46:48.987Z,98079.44
2022-10-07T18:49:15.844Z,98077.22
2022-10-07T18:51:43.224Z,98074.84
2022-10-07T18:54:11.270Z,98072.63
2022-10-07T18:56:41.023Z,98078.94
2022-10-07T18:59:09.963Z,98072.31
2022-10-07T19:01:37.392Z,98071.84
2022-10-07T19:04:06.089Z,98080.19
2022-10-07T19:06:37.257Z,98082.19
2022-10-07T19:09:08.477Z,98082.31
2022-10-07T19:11:35.472Z,98076.41
2022-10-07T19:14:02.866Z,98080.22
2022-10-07T19:16:36.837Z,98078.09
2022-10-07T19:19:09.795Z,98074.91
2022-10-07T19:21:36.776Z,98075.16
2022-10-07T19:24:04.320Z,98075.53
2022-10-07T19:26:38.615Z,98079.34
2022-10-07T19:29:08.890Z,98084.09
2022-10-07T19:31:40.699Z,98080.97
2022-10-07T19:34:14.893Z,98084.78
2022-10-07T19:36:46.737Z,98080.06
2022-10-07T19:39:20.766Z,98087.41
2022-10-07T19:41:48.163Z,98098.09
2022-10-07T19:44:16.189Z,98099.31
2022-10-07T19:46:43.042Z,98096.22
2022-10-07T19:49:10.436Z,98097.41
2022-10-07T19:51:40.160Z,98102.88
2022-10-07T19:54:09.789Z,98092.78
2022-10-07T19:56:38.685Z,98101.69
2022-10-07T19:59:08.969Z,98100.25
2022-10-07T20:01:44.114Z,98093.63
2022-10-07T20:04:14.818Z,98087.59
2022-10-07T20:06:41.993Z,98085.31
2022-10-07T20:09:13.526Z,98091.63
2022-10-07T20:11:40.555Z,98085.81
2022-10-07T20:14:07.691Z,98080.84
2022-10-07T20:16:34.984Z,98082.00
2022-10-07T20:19:10.842Z,98078.00
2022-10-07T20:21:39.336Z,98079.19
2022-10-07T20:24:08.414Z,98079.19
2022-10-07T20:26:38.213Z,98087.81
2022-10-07T20:29:07.779Z,98075.84
2022-10-07T20:31:41.396Z,98089.09
2022-10-07T20:34:18.887Z,98086.75
2022-10-07T20:36:46.086Z,98089.47
2022-10-07T20:39:36.065Z,98093.97
2022-10-07T20:42:21.531Z,98081.91
2022-10-07T20:44:50.091Z,98081.06
2022-10-07T20:47:18.886Z,98077.72
2022-10-07T20:49:45.696Z,98076.19
2022-10-07T20:52:17.065Z,98076.31
2022-10-07T20:54:45.484Z,98086.84
2022-10-07T20:57:16.190Z,98077.50
2022-10-07T20:59:43.970Z,98073.22
2022-10-07T21:02:13.532Z,98070.75
2022-10-07T21:04:41.818Z,98058.75
2022-10-07T21:07:08.798Z,98050.84
2022-10-07T21:09:39.758Z,98057.72
2022-10-07T21:12:13.554Z,98043.94
2022-10-07T21:14:42.186Z,98050.13
2022-10-07T21:17:09.341Z,98042.41
2022-10-07T21:19:36.081Z,98026.91
2022-10-07T21:22:05.125Z,98038.16
2022-10-07T21:24:35.932Z,98045.28
2022-10-07T21:27:05.953Z,98039.59
2022-10-07T21:29:36.399Z,98043.16
2022-10-07T21:32:08.188Z,98043.34
2022-10-07T21:34:34.978Z,98041.69
2022-10-07T21:37:02.646Z,98038.38
2022-10-07T21:39:29.721Z,98037.69
2022-10-07T21:41:58.621Z,98040.28
2022-10-07T21:44:26.761Z,98038.88
2022-10-07T21:46:53.506Z,98036.34
2022-10-07T21:49:20.262Z,98030.53
2022-10-07T21:51:47.123Z,98027.94
2022-10-07T21:54:15.172Z,98029.84
2022-10-07T21:56:45.801Z,98020.47
2022-10-07T21:59:13.810Z,98018.78
2022-10-07T22:01:42.313Z,98023.28
2022-10-07T22:04:17.095Z,98025.16
2022-10-07T22:07:03.429Z,98025.16
2022-10-07T22:09:31.036Z,98017.97
2022-10-07T22:11:58.438Z,98020.34
2022-10-07T22:14:25.172Z,98012.53
2022-10-07T22:16:51.867Z,98016.81
2022-10-07T22:19:18.613Z,98027.00
2022-10-07T22:21:45.832Z,98014.09
2022-10-07T22:24:13.774Z,98016.56
2022-10-07T22:26:47.210Z,98014.22
2022-10-07T22:29:17.378Z,98011.81
2022-10-07T22:31:44.752Z,98015.47
2022-10-07T22:34:31.919Z,98017.25
2022-10-07T22:36:58.756Z,98018.09
2022-10-07T22:39:28.410Z,98019.63
2022-10-07T22:41:55.145Z,98014.41
2022-10-07T22:44:21.876Z,98014.41
2022-10-07T22:46:48.850Z,98010.16
2022-10-07T22:49:15.549Z,98002.59
2022-10-07T22:51:42.955Z,98002.47
2022-10-07T22:54:12.689Z,98006.84
2022-10-07T22:56:40.212Z,98005.91
2022-10-07T22:59:08.428Z,98004.94
2022-10-07T23:01:35.743Z,98000.44
2022-10-07T23:04:03.988Z,97991.69
2022-10-07T23:06:34.495Z,97990.88
2022-10-07T23:09:03.329Z,98002.34
2022-10-07T23:11:31.998Z,98000.69
2022-10-07T23:13:59.256Z,98002.34
2022-10-07T23:16:33.966Z,97995.25
2022-10-07T23:19:00.905Z,97992.53
2022-10-07T23:21:32.983Z,97982.84
2022-10-07T23:24:04.657Z,97979.41
2022-10-07T23:26:34.068Z,97984.63
2022-10-07T23:29:01.045Z,97982.72
2022-10-07T23:31:31.564Z,97980.25
2022-10-07T23:34:00.272Z,97982.00
2022-10-07T23:36:28.439Z,97983.88
2022-10-07T23:38:56.141Z,97983.06
2022-10-07T23:41:26.274Z,97971.09
2022-10-07T23:43:56.503Z,97987.66
2022-10-07T23:46:26.165Z,97983.41
2022-10-07T23:48:54.091Z,97972.06
2022-10-07T23:51:25.942Z,97965.91
2022-10-07T23:53:53.061Z,97964.94
2022-10-07T23:56:19.794Z,97968.03
2022-10-07T23:58:46.586Z,97964.63
